createdAt,value
2023-03-05T00:02:07.144Z,0.75
2023-03-05T00:04:36.426Z,0.80
2023-03-05T00:07:06.037Z,0.82
2023-03-05T00:09:36.002Z,0.78
2023-03-05T00:12:05.946Z,0.80
2023-03-05T00:14:35.121Z,0.81
2023-03-05T00:17:04.733Z,0.87
2023-03-05T00:19:35.379Z,0.88
2023-03-05T00:22:04.942Z,0.92
2023-03-05T00:24:34.251Z,0.83
2023-03-05T00:27:03.820Z,0.71
2023-03-05T00:29:33.086Z,0.75
2023-03-05T00:32:02.704Z,0.75
2023-03-05T00:34:31.905Z,0.63
2023-03-05T00:37:02.895Z,0.59
2023-03-05T00:39:32.104Z,0.56
2023-03-05T00:42:01.610Z,0.59
2023-03-05T00:44:30.775Z,0.52
2023-03-05T00:47:00.387Z,0.41
2023-03-05T00:49:29.621Z,0.47
2023-03-05T00:51:59.199Z,0.51
2023-03-05T00:54:29.843Z,0.45
2023-03-05T00:56:59.369Z,0.40
2023-03-05T00:59:28.692Z,0.46
2023-03-05T01:01:58.321Z,0.38
2023-03-05T01:04:27.647Z,0.46
2023-03-05T01:06:57.152Z,0.41
2023-03-05T01:09:26.419Z,0.57
2023-03-05T01:11:57.531Z,0.57
2023-03-05T01:14:27.918Z,0.65
2023-03-05T01:16:57.464Z,0.48
2023-03-05T01:19:26.613Z,0.44
2023-03-05T01:21:56.283Z,0.32
2023-03-05T01:24:25.568Z,0.28
2023-03-05T01:26:55.100Z,0.26
2023-03-05T01:29:25.979Z,0.28
2023-03-05T01:31:55.587Z,0.33
2023-03-05T01:34:24.776Z,0.51
2023-03-05T01:36:54.385Z,0.50
2023-03-05T01:39:23.731Z,0.49
2023-03-05T01:41:53.305Z,0.45
2023-03-05T01:44:23.458Z,0.56
2023-03-05T01:46:54.385Z,0.64
2023-03-05T01:49:25.065Z,0.73
2023-03-05T01:51:59.441Z,0.82
2023-03-05T01:54:31.591Z,0.86
2023-03-05T01:57:01.846Z,0.56
2023-03-05T01:59:30.996Z,0.49
2023-03-05T02:02:02.869Z,0.71
2023-03-05T02:04:34.311Z,0.76
2023-03-05T02:07:03.932Z,0.83
2023-03-05T02:09:33.167Z,0.84
2023-03-05T02:12:02.721Z,0.80
2023-03-05T02:14:31.931Z,0.72
2023-03-05T02:17:02.964Z,0.77
2023-03-05T02:19:35.241Z,0.67
2023-03-05T02:22:06.455Z,0.64
2023-03-05T02:24:37.422Z,0.49
2023-03-05T02:27:07.335Z,0.60
2023-03-05T02:29:36.607Z,0.69
2023-03-05T02:32:06.460Z,0.78
2023-03-05T02:34:35.787Z,0.78
2023-03-05T02:37:09.264Z,0.78
2023-03-05T02:39:39.796Z,0.72
2023-03-05T02:42:11.485Z,0.57
2023-03-05T02:44:40.756Z,0.42
2023-03-05T02:47:10.324Z,0.30
2023-03-05T02:49:39.538Z,0.24
2023-03-05T02:52:10.654Z,0.27
2023-03-05T02:54:39.863Z,0.32
2023-03-05T02:57:09.339Z,0.43
2023-03-05T02:59:38.559Z,0.45
2023-03-05T03:02:08.173Z,0.56
2023-03-05T03:04:37.420Z,0.56
2023-03-05T03:07:07.077Z,0.54
2023-03-05T03:09:38.296Z,0.61
2023-03-05T03:12:08.209Z,0.53
2023-03-05T03:14:39.497Z,0.46
2023-03-05T03:17:09.281Z,0.40
2023-03-05T03:19:38.581Z,0.46
2023-03-05T03:22:08.336Z,0.56
2023-03-05T03:24:39.304Z,0.42
2023-03-05T03:27:09.018Z,0.39
2023-03-05T03:29:38.263Z,0.50
2023-03-05T03:32:08.404Z,0.34
2023-03-05T03:34:37.698Z,0.39
2023-03-05T03:37:07.273Z,0.56
2023-03-05T03:39:36.467Z,0.59
2023-03-05T03:42:07.797Z,0.42
2023-03-05T03:44:36.972Z,0.38
2023-03-05T03:47:06.670Z,0.40
2023-03-05T03:49:35.873Z,0.40
2023-03-05T03:52:05.469Z,0.47
2023-03-05T03:54:34.825Z,0.41
2023-03-05T03:57:04.613Z,0.25
2023-03-05T03:59:35.236Z,0.22
2023-03-05T04:02:04.824Z,0.18
2023-03-05T04:04:34.016Z,0.22
2023-03-05T04:07:03.555Z,0.28
2023-03-05T04:09:32.815Z,0.13
2023-03-05T04:12:02.302Z,0.12
2023-03-05T04:14:31.473Z,0.28
2023-03-05T04:17:02.523Z,0.50
2023-03-05T04:19:31.797Z,0.62
2023-03-05T04:22:01.351Z,0.61
2023-03-05T04:24:30.588Z,0.59
2023-03-05T04:27:00.135Z,0.58
2023-03-05T04:29:29.322Z,0.45
2023-03-05T04:31:58.920Z,0.42
2023-03-05T04:34:29.846Z,0.50
2023-03-05T04:36:59.399Z,0.33
2023-03-05T04:39:28.756Z,0.40
2023-03-05T04:41:58.316Z,0.04
2023-03-05T04:44:27.502Z,-0.15
2023-03-05T04:46:57.056Z,-0.25
2023-03-05T04:49:26.348Z,-0.11
2023-03-05T04:51:57.958Z,0.10
2023-03-05T04:54:27.163Z,0.16
2023-03-05T04:56:56.772Z,0.09
2023-03-05T04:59:25.993Z,0.24
2023-03-05T05:01:55.582Z,0.21
2023-03-05T05:04:24.981Z,0.16
2023-03-05T05:06:57.722Z,0.19
2023-03-05T05:09:26.930Z,0.21
2023-03-05T05:11:56.488Z,0.16
2023-03-05T05:14:25.758Z,0.18
2023-03-05T05:16:55.291Z,0.17
2023-03-05T05:19:24.671Z,0.19
2023-03-05T05:21:54.270Z,0.08
2023-03-05T05:24:24.925Z,0.09
2023-03-05T05:26:55.423Z,0.07
2023-03-05T05:29:24.791Z,0.09
2023-03-05T05:31:54.363Z,0.16
2023-03-05T05:34:25.225Z,0.13
2023-03-05T05:36:54.826Z,0.13
2023-03-05T05:39:25.482Z,0.09
2023-03-05T05:41:55.134Z,0.09
2023-03-05T05:44:24.318Z,0.09
2023-03-05T05:46:53.896Z,-0.03
2023-03-05T05:49:23.028Z,-0.02
2023-03-05T05:51:52.510Z,0.05
2023-03-05T05:54:21.775Z,0.06
2023-03-05T05:56:52.965Z,-0.09
2023-03-05T05:59:22.140Z,-0.01
2023-03-05T06:01:51.741Z,0.02
2023-03-05T06:04:20.960Z,0.00
2023-03-05T06:06:50.592Z,0.07
2023-03-05T06:09:19.811Z,0.03
2023-03-05T06:11:49.391Z,0.04
2023-03-05T06:14:20.109Z,0.01
2023-03-05T06:16:49.712Z,0.09
2023-03-05T06:19:18.965Z,0.09
2023-03-05T06:21:48.505Z,0.14
2023-03-05T06:24:19.369Z,0.11
2023-03-05T06:26:49.328Z,-0.01
2023-03-05T06:29:20.033Z,0.12
2023-03-05T06:31:49.742Z,0.22
2023-03-05T06:34:18.944Z,0.20
2023-03-05T06:36:48.466Z,0.16
2023-03-05T06:39:17.718Z,0.26
2023-03-05T06:41:47.206Z,0.31
2023-03-05T06:44:16.607Z,0.27
2023-03-05T06:46:47.768Z,0.28
2023-03-05T06:49:17.042Z,0.37
2023-03-05T06:51:46.553Z,0.19
2023-03-05T06:54:16.427Z,0.17
2023-03-05T06:56:46.531Z,0.41
2023-03-05T06:59:16.430Z,0.40
2023-03-05T07:01:47.436Z,0.36
2023-03-05T07:04:16.719Z,0.42
2023-03-05T07:06:46.302Z,0.43
2023-03-05T07:09:16.393Z,0.41
2023-03-05T07:11:45.857Z,0.63
2023-03-05T07:14:15.102Z,0.61
2023-03-05T07:16:44.717Z,0.72
2023-03-05T07:19:15.476Z,0.95
2023-03-05T07:21:45.245Z,1.06
2023-03-05T07:24:14.815Z,0.99
2023-03-05T07:26:44.555Z,0.97
2023-03-05T07:29:13.824Z,1.05
2023-03-05T07:31:43.408Z,1.25
2023-03-05T07:34:12.692Z,1.14
2023-03-05T07:36:43.719Z,1.18
2023-03-05T07:39:13.329Z,1.19
2023-03-05T07:41:42.912Z,1.36
2023-03-05T07:44:12.768Z,1.45
2023-03-05T07:46:42.372Z,1.68
2023-03-05T07:49:11.725Z,1.69
2023-03-05T07:51:41.698Z,1.81
2023-03-05T07:54:12.439Z,1.90
2023-03-05T07:56:42.061Z,1.82
2023-03-05T07:59:12.565Z,1.95
2023-03-05T08:01:42.204Z,2.13
2023-03-05T08:04:12.103Z,1.97
2023-03-05T08:06:42.171Z,2.02
2023-03-05T08:09:12.832Z,2.08
2023-03-05T08:11:42.404Z,2.02
2023-03-05T08:14:12.108Z,2.11
2023-03-05T08:16:41.806Z,2.24
2023-03-05T08:19:11.517Z,2.17
2023-03-05T08:21:41.135Z,2.31
2023-03-05T08:24:10.482Z,2.43
2023-03-05T08:26:41.658Z,2.44
2023-03-05T08:29:10.974Z,2.50
2023-03-05T08:31:40.759Z,2.32
2023-03-05T08:34:10.026Z,2.36
2023-03-05T08:36:39.576Z,2.34
2023-03-05T08:39:10.076Z,2.56
2023-03-05T08:41:39.666Z,2.67
2023-03-05T08:44:10.586Z,2.70
2023-03-05T08:46:40.451Z,2.61
2023-03-05T08:49:09.818Z,2.79
2023-03-05T08:51:39.407Z,2.77
2023-03-05T08:54:08.620Z,2.75
2023-03-05T08:56:38.263Z,2.86
2023-03-05T08:59:08.225Z,2.76
2023-03-05T09:01:39.371Z,2.84
2023-03-05T09:04:08.657Z,2.88
2023-03-05T09:06:40.556Z,3.00
2023-03-05T09:09:09.923Z,2.99
2023-03-05T09:11:39.503Z,3.02
2023-03-05T09:14:08.962Z,3.14
2023-03-05T09:16:41.102Z,3.12
2023-03-05T09:19:12.816Z,3.07
2023-03-05T09:21:42.502Z,3.14
2023-03-05T09:24:12.240Z,3.19
2023-03-05T09:26:42.426Z,3.33
2023-03-05T09:29:12.622Z,3.31
2023-03-05T09:31:44.254Z,3.39
2023-03-05T09:34:13.959Z,3.40
2023-03-05T09:36:43.074Z,3.48
2023-03-05T09:39:12.703Z,3.26
2023-03-05T09:41:49.256Z,3.22
2023-03-05T09:44:21.775Z,3.42
2023-03-05T09:46:54.861Z,3.49
2023-03-05T09:49:29.917Z,3.50
2023-03-05T09:52:01.604Z,3.44
2023-03-05T09:54:31.884Z,3.47
2023-03-05T09:57:01.940Z,3.56
2023-03-05T09:59:32.118Z,3.68
2023-03-05T10:02:03.077Z,3.59
2023-03-05T10:04:36.086Z,3.69
2023-03-05T10:07:08.668Z,3.60
2023-03-05T10:09:43.463Z,3.55
2023-03-05T10:12:14.767Z,3.65
2023-03-05T10:14:44.393Z,3.60
2023-03-05T10:17:30.554Z,3.35
2023-03-05T10:20:04.595Z,3.37
2023-03-05T10:22:35.021Z,3.53
2023-03-05T10:25:07.974Z,3.72
2023-03-05T10:27:42.179Z,3.62
2023-03-05T10:30:20.991Z,3.41
2023-03-05T10:32:52.507Z,3.55
2023-03-05T10:35:30.631Z,3.71
2023-03-05T10:38:03.767Z,3.67
2023-03-05T10:40:33.971Z,3.85
2023-03-05T10:43:05.498Z,3.96
2023-03-05T10:45:36.755Z,3.97
2023-03-05T10:48:09.316Z,3.62
2023-03-05T10:50:39.504Z,3.80
2023-03-05T10:53:09.542Z,3.74
2023-03-05T10:55:39.154Z,3.85
2023-03-05T10:58:12.279Z,3.86
2023-03-05T11:00:42.072Z,3.89
2023-03-05T11:03:12.684Z,3.86
2023-03-05T11:05:46.167Z,3.88
2023-03-05T11:08:30.095Z,3.96
2023-03-05T11:11:20.339Z,3.91
2023-03-05T11:13:54.124Z,4.01
2023-03-05T11:16:24.398Z,4.09
2023-03-05T11:19:12.846Z,4.04
2023-03-05T11:21:42.536Z,4.05
2023-03-05T11:24:14.010Z,4.22
2023-03-05T11:26:50.483Z,4.29
2023-03-05T11:29:21.355Z,4.33
2023-03-05T11:31:51.096Z,4.33
2023-03-05T11:34:26.173Z,4.48
2023-03-05T11:37:04.006Z,4.36
2023-03-05T11:39:35.405Z,4.51
2023-03-05T11:42:05.840Z,4.48
2023-03-05T11:44:36.078Z,4.54
2023-03-05T11:47:06.440Z,4.57
2023-03-05T11:49:37.202Z,4.62
2023-03-05T11:52:08.356Z,4.51
2023-03-05T11:54:38.481Z,4.45
2023-03-05T11:57:10.790Z,4.42
2023-03-05T11:59:41.026Z,4.44
2023-03-05T12:02:19.018Z,4.39
2023-03-05T12:04:50.752Z,4.11
2023-03-05T12:07:22.888Z,4.28
2023-03-05T12:09:52.551Z,4.50
2023-03-05T12:12:31.033Z,4.55
2023-03-05T12:15:02.819Z,4.49
2023-03-05T12:17:33.163Z,4.50
2023-03-05T12:20:06.621Z,4.63
2023-03-05T12:22:38.228Z,4.54
2023-03-05T12:25:27.274Z,4.58
2023-03-05T12:27:57.257Z,4.59
2023-03-05T12:30:44.377Z,4.59
2023-03-05T12:33:28.981Z,4.61
2023-03-05T12:36:12.959Z,4.58
2023-03-05T12:38:44.009Z,4.75
2023-03-05T12:41:43.067Z,4.76
2023-03-05T12:44:33.435Z,4.60
2023-03-05T12:47:23.770Z,4.57
2023-03-05T12:49:53.514Z,4.61
2023-03-05T12:52:38.145Z,4.59
2023-03-05T12:55:25.647Z,4.55
2023-03-05T12:57:57.918Z,4.70
2023-03-05T13:00:28.433Z,4.75
2023-03-05T13:02:58.803Z,4.89
2023-03-05T13:05:29.571Z,4.97
2023-03-05T13:08:11.034Z,5.00
2023-03-05T13:10:40.624Z,4.96
2023-03-05T13:13:14.099Z,4.84
2023-03-05T13:15:46.735Z,4.93
2023-03-05T13:18:18.426Z,4.90
2023-03-05T13:20:51.077Z,4.86
2023-03-05T13:23:24.791Z,5.02
2023-03-05T13:26:01.951Z,4.88
2023-03-05T13:28:33.047Z,4.85
2023-03-05T13:31:03.678Z,4.84
2023-03-05T13:33:33.445Z,4.83
2023-03-05T13:36:03.218Z,4.81
2023-03-05T13:38:32.953Z,4.83
2023-03-05T13:41:06.620Z,5.01
2023-03-05T13:43:37.278Z,5.25
2023-03-05T13:46:06.961Z,5.32
2023-03-05T13:48:36.246Z,5.43
2023-03-05T13:51:07.175Z,5.62
2023-03-05T13:53:36.514Z,5.80
2023-03-05T13:56:06.834Z,5.87
2023-03-05T13:58:47.529Z,6.01
2023-03-05T14:01:20.044Z,6.10
2023-03-05T14:03:50.414Z,6.13
2023-03-05T14:06:20.590Z,6.23
2023-03-05T14:08:53.300Z,6.30
2023-03-05T14:11:23.388Z,6.37
2023-03-05T14:13:57.502Z,6.42
2023-03-05T14:16:28.174Z,6.46
2023-03-05T14:18:57.999Z,6.42
2023-03-05T14:21:27.871Z,6.47
2023-03-05T14:23:58.056Z,6.49
2023-03-05T14:26:31.218Z,6.73
2023-03-05T14:29:02.267Z,6.75
2023-03-05T14:31:32.480Z,6.91
2023-03-05T14:34:02.183Z,7.01
2023-03-05T14:36:31.864Z,7.05
2023-03-05T14:39:02.270Z,7.13
2023-03-05T14:41:36.850Z,6.87
2023-03-05T14:44:12.141Z,6.83
2023-03-05T14:46:41.873Z,6.88
2023-03-05T14:49:11.121Z,6.78
2023-03-05T14:51:41.363Z,6.91
2023-03-05T14:54:19.377Z,6.86
2023-03-05T14:56:49.871Z,6.99
2023-03-05T14:59:21.343Z,6.93
2023-03-05T15:01:51.683Z,6.97
2023-03-05T15:04:20.936Z,6.94
2023-03-05T15:06:51.377Z,7.00
2023-03-05T15:09:21.401Z,6.89
2023-03-05T15:11:51.052Z,6.89
2023-03-05T15:14:21.779Z,6.87
2023-03-05T15:16:51.296Z,6.89
2023-03-05T15:19:20.548Z,6.90
2023-03-05T15:21:50.058Z,7.08
2023-03-05T15:24:19.273Z,7.14
2023-03-05T15:26:50.233Z,7.26
2023-03-05T15:29:19.593Z,7.05
2023-03-05T15:31:50.616Z,7.10
2023-03-05T15:34:19.791Z,6.94
2023-03-05T15:36:49.359Z,6.88
2023-03-05T15:39:18.562Z,6.93
2023-03-05T15:41:48.160Z,6.73
2023-03-05T15:44:17.339Z,6.74
2023-03-05T15:46:46.919Z,6.78
2023-03-05T15:49:17.627Z,6.44
2023-03-05T15:51:47.223Z,6.42
2023-03-05T15:54:16.530Z,6.30
2023-03-05T15:56:46.130Z,6.25
2023-03-05T15:59:15.346Z,6.09
2023-03-05T16:01:46.356Z,6.10
2023-03-05T16:04:15.715Z,5.84
2023-03-05T16:06:46.693Z,5.87
2023-03-05T16:09:15.978Z,5.78
2023-03-05T16:11:48.179Z,5.78
2023-03-05T16:14:17.947Z,5.61
2023-03-05T16:16:47.565Z,5.67
2023-03-05T16:19:17.860Z,5.62
2023-03-05T16:21:48.862Z,5.39
2023-03-05T16:24:18.061Z,5.19
2023-03-05T16:26:47.700Z,5.13
2023-03-05T16:29:16.969Z,5.18
2023-03-05T16:31:47.777Z,5.22
2023-03-05T16:34:17.203Z,5.15
2023-03-05T16:36:50.965Z,5.13
2023-03-05T16:39:20.633Z,5.05
2023-03-05T16:41:50.453Z,4.96
2023-03-05T16:44:19.693Z,4.94
2023-03-05T16:46:53.424Z,4.81
2023-03-05T16:49:22.788Z,4.73
2023-03-05T16:51:53.890Z,4.40
2023-03-05T16:54:23.343Z,4.58
2023-03-05T16:56:53.527Z,4.24
2023-03-05T16:59:22.778Z,4.33
2023-03-05T17:01:52.410Z,4.36
2023-03-05T17:04:21.760Z,4.06
2023-03-05T17:06:51.920Z,4.08
2023-03-05T17:09:24.550Z,4.18
2023-03-05T17:11:54.113Z,4.14
2023-03-05T17:14:23.309Z,3.84
2023-03-05T17:16:52.940Z,3.78
2023-03-05T17:19:22.325Z,3.91
2023-03-05T17:21:52.504Z,3.89
2023-03-05T17:24:23.519Z,3.90
2023-03-05T17:26:53.206Z,3.86
2023-03-05T17:29:23.316Z,3.77
2023-03-05T17:31:53.939Z,3.78
2023-03-05T17:34:35.710Z,3.73
2023-03-05T17:37:06.652Z,3.73
2023-03-05T17:39:37.357Z,3.70
2023-03-05T17:42:07.042Z,3.69
2023-03-05T17:44:36.272Z,3.64
2023-03-05T17:47:06.249Z,3.47
2023-03-05T17:49:35.618Z,3.51
2023-03-05T17:52:05.488Z,3.49
2023-03-05T17:54:34.869Z,3.46
2023-03-05T17:57:06.675Z,3.44
2023-03-05T17:59:35.877Z,3.39
2023-03-05T18:02:05.639Z,3.36
2023-03-05T18:04:35.242Z,3.28
2023-03-05T18:07:05.512Z,3.28
2023-03-05T18:09:35.183Z,3.20
2023-03-05T18:12:07.218Z,3.16
2023-03-05T18:14:37.300Z,3.09
2023-03-05T18:17:09.316Z,3.06
2023-03-05T18:19:38.823Z,2.98
2023-03-05T18:22:08.810Z,2.96
2023-03-05T18:24:38.320Z,2.93
2023-03-05T18:27:09.932Z,2.86
2023-03-05T18:29:39.490Z,2.74
2023-03-05T18:32:09.371Z,2.79
2023-03-05T18:34:38.717Z,2.76
2023-03-05T18:37:08.445Z,2.78
2023-03-05T18:39:37.914Z,2.71
2023-03-05T18:42:08.084Z,2.73
2023-03-05T18:44:39.662Z,2.69
2023-03-05T18:47:09.997Z,2.45
2023-03-05T18:49:39.362Z,2.49
2023-03-05T18:52:09.212Z,2.58
2023-03-05T18:54:40.343Z,2.57
2023-03-05T18:57:10.479Z,2.45
2023-03-05T18:59:41.691Z,2.34
2023-03-05T19:02:13.758Z,2.48
2023-03-05T19:04:43.276Z,2.55
2023-03-05T19:07:13.254Z,2.50
2023-03-05T19:09:52.388Z,2.35
2023-03-05T19:12:22.946Z,2.30
2023-03-05T19:14:54.221Z,2.26
2023-03-05T19:17:24.124Z,2.37
2023-03-05T19:19:53.878Z,2.28
2023-03-05T19:22:26.782Z,2.17
2023-03-05T19:24:56.375Z,2.25
2023-03-05T19:27:26.972Z,2.19
2023-03-05T19:29:58.302Z,2.17
2023-03-05T19:32:28.263Z,2.28
2023-03-05T19:34:58.168Z,2.22
2023-03-05T19:37:28.427Z,2.16
2023-03-05T19:39:58.091Z,2.28
2023-03-05T19:42:28.212Z,2.17
2023-03-05T19:45:00.140Z,2.07
2023-03-05T19:47:30.428Z,2.13
2023-03-05T19:50:00.228Z,2.21
2023-03-05T19:52:30.381Z,2.13
2023-03-05T19:55:00.216Z,2.02
2023-03-05T19:57:30.496Z,2.06
2023-03-05T20:00:01.940Z,2.14
2023-03-05T20:02:33.066Z,2.01
2023-03-05T20:05:02.898Z,2.06
2023-03-05T20:07:33.046Z,2.02
2023-03-05T20:10:03.052Z,1.96
2023-03-05T20:12:33.923Z,2.02
2023-03-05T20:15:05.607Z,1.81
2023-03-05T20:17:36.032Z,1.72
2023-03-05T20:20:06.109Z,1.80
2023-03-05T20:22:36.013Z,1.64
2023-03-05T20:25:07.070Z,1.57
2023-03-05T20:27:36.977Z,1.72
2023-03-05T20:30:09.691Z,1.66
2023-03-05T20:32:39.528Z,1.76
2023-03-05T20:35:09.411Z,1.85
2023-03-05T20:37:49.413Z,1.69
2023-03-05T20:40:18.911Z,1.87
2023-03-05T20:42:51.896Z,1.81
2023-03-05T20:45:22.714Z,1.82
2023-03-05T20:47:52.504Z,1.75
2023-03-05T20:50:22.472Z,1.82
2023-03-05T20:52:52.118Z,1.69
2023-03-05T20:55:21.317Z,1.67
2023-03-05T20:57:50.966Z,1.69
2023-03-05T21:00:20.435Z,1.60
2023-03-05T21:02:51.886Z,1.60
2023-03-05T21:05:22.287Z,1.63
2023-03-05T21:07:52.736Z,1.61
2023-03-05T21:10:21.998Z,1.52
2023-03-05T21:12:52.053Z,1.62
2023-03-05T21:15:23.340Z,1.69
2023-03-05T21:17:54.646Z,1.79
2023-03-05T21:20:24.900Z,1.68
2023-03-05T21:22:54.523Z,1.74
2023-03-05T21:25:25.057Z,1.60
2023-03-05T21:27:57.410Z,1.49
2023-03-05T21:30:28.502Z,1.49
2023-03-05T21:32:59.566Z,1.48
2023-03-05T21:35:29.082Z,1.44
2023-03-05T21:37:58.718Z,1.40
2023-03-05T21:40:27.935Z,1.38
2023-03-05T21:42:57.480Z,1.45
2023-03-05T21:45:27.558Z,1.39
2023-03-05T21:47:58.799Z,1.44
2023-03-05T21:50:29.506Z,1.56
2023-03-05T21:52:59.207Z,1.47
2023-03-05T21:55:33.150Z,1.56
2023-03-05T21:58:02.713Z,1.49
2023-03-05T22:00:31.946Z,1.51
2023-03-05T22:03:01.684Z,1.49
2023-03-05T22:05:32.347Z,1.53
2023-03-05T22:08:01.894Z,1.42
2023-03-05T22:10:31.133Z,1.45
2023-03-05T22:13:12.344Z,1.33
2023-03-05T22:15:48.001Z,1.42
2023-03-05T22:18:18.570Z,1.31
2023-03-05T22:20:49.576Z,1.33
2023-03-05T22:23:19.378Z,1.23
2023-03-05T22:25:48.642Z,1.29
2023-03-05T22:28:18.142Z,1.25
2023-03-05T22:30:47.505Z,1.28
2023-03-05T22:33:17.028Z,1.31
2023-03-05T22:35:46.428Z,1.36
2023-03-05T22:38:17.456Z,1.23
2023-03-05T22:40:48.060Z,1.31
2023-03-05T22:43:17.679Z,1.31
2023-03-05T22:45:46.908Z,1.34
2023-03-05T22:48:16.506Z,1.31
2023-03-05T22:50:45.810Z,1.31
2023-03-05T22:53:15.316Z,1.29
2023-03-05T22:55:45.988Z,1.30
2023-03-05T22:58:15.489Z,1.31
2023-03-05T23:00:44.795Z,1.36
2023-03-05T23:03:14.492Z,1.34
2023-03-05T23:05:43.717Z,1.34
2023-03-05T23:08:13.279Z,1.32
2023-03-05T23:10:42.510Z,1.30
2023-03-05T23:13:13.495Z,1.33
2023-03-05T23:15:42.872Z,1.35
2023-03-05T23:18:14.367Z,1.36
2023-03-05T23:20:43.750Z,1.39
2023-03-05T23:23:13.684Z,1.38
2023-03-05T23:25:42.942Z,1.40
2023-03-05T23:28:13.980Z,1.39
2023-03-05T23:30:43.361Z,1.32
2023-03-05T23:33:14.590Z,1.31
2023-03-05T23:35:44.559Z,1.31
2023-03-05T23:38:14.379Z,1.29
2023-03-05T23:40:44.790Z,1.31
2023-03-05T23:43:16.086Z,1.28
2023-03-05T23:45:45.767Z,1.28
2023-03-05T23:48:15.470Z,1.20
2023-03-05T23:50:45.457Z,1.25
2023-03-05T23:53:16.896Z,1.27
2023-03-05T23:55:46.301Z,1.23
2023-03-05T23:58:17.426Z,1.22
